createdAt,value
2019-01-19T00:00:22.731Z,17.08
2019-01-19T00:01:22.735Z,17.09
2019-01-19T00:02:22.747Z,16.97
2019-01-19T00:03:22.706Z,17.11
2019-01-19T00:04:25.686Z,16.97
2019-01-19T00:05:22.687Z,17.15
2019-01-19T00:06:22.659Z,17.04
2019-01-19T00:07:22.680Z,17.06
2019-01-19T00:08:22.641Z,17.04
2019-01-19T00:09:22.628Z,17.11
2019-01-19T00:10:22.616Z,17.09
2019-01-19T00:11:22.623Z,17.01
2019-01-19T00:12:22.683Z,17.02
2019-01-19T00:13:22.599Z,17.06
2019-01-19T00:14:22.656Z,16.97
2019-01-19T00:15:22.563Z,17.06
2019-01-19T00:16:22.564Z,17.06
2019-01-19T00:17:22.633Z,17.01
2019-01-19T00:18:23.043Z,17.01
2019-01-19T00:19:22.565Z,17.09
2019-01-19T00:20:22.547Z,16.96
2019-01-19T00:21:22.528Z,17.02
2019-01-19T00:22:22.575Z,16.96
2019-01-19T00:23:22.510Z,17.01
2019-01-19T00:24:22.498Z,17.08
2019-01-19T00:25:22.483Z,17.02
2019-01-19T00:26:22.476Z,17.05
2019-01-19T00:27:22.536Z,16.96
2019-01-19T00:28:22.428Z,16.99
2019-01-19T00:29:22.430Z,17.11
2019-01-19T00:30:22.420Z,16.99
2019-01-19T00:31:22.387Z,16.93
2019-01-19T00:32:22.405Z,17.04
2019-01-19T00:33:22.375Z,16.91
2019-01-19T00:34:22.356Z,16.99
2019-01-19T00:35:22.352Z,17.01
2019-01-19T00:36:22.329Z,17.05
2019-01-19T00:37:22.347Z,17.06
2019-01-19T00:38:22.314Z,16.93
2019-01-19T00:39:22.300Z,16.94
2019-01-19T00:40:22.289Z,16.94
2019-01-19T00:41:22.272Z,16.96
2019-01-19T00:42:22.293Z,16.93
2019-01-19T00:43:22.269Z,16.91
2019-01-19T00:44:22.242Z,16.97
2019-01-19T00:45:22.233Z,16.94
2019-01-19T00:46:22.227Z,16.81
2019-01-19T00:47:22.243Z,16.94
2019-01-19T00:48:22.228Z,16.90
2019-01-19T00:49:22.188Z,16.86
2019-01-19T00:50:22.180Z,16.86
2019-01-19T00:51:22.261Z,16.84
2019-01-19T00:52:22.507Z,16.81
2019-01-19T00:53:22.143Z,16.87
2019-01-19T00:54:22.139Z,16.87
2019-01-19T00:55:22.125Z,16.87
2019-01-19T00:56:22.112Z,16.89
2019-01-19T00:57:22.144Z,16.87
2019-01-19T00:58:22.098Z,16.89
2019-01-19T00:59:22.079Z,16.83
2019-01-19T01:00:22.109Z,16.90
2019-01-19T01:01:22.057Z,16.89
2019-01-19T01:02:22.070Z,16.91
2019-01-19T01:03:22.035Z,16.87
2019-01-19T01:04:22.030Z,16.81
2019-01-19T01:05:25.479Z,16.86
2019-01-19T01:06:23.684Z,16.89
2019-01-19T01:07:21.986Z,16.83
2019-01-19T01:08:22.005Z,16.90
2019-01-19T01:09:21.972Z,16.89
2019-01-19T01:10:21.956Z,16.97
2019-01-19T01:11:21.944Z,16.90
2019-01-19T01:12:22.064Z,16.99
2019-01-19T01:13:21.927Z,16.94
2019-01-19T01:14:21.931Z,16.99
2019-01-19T01:15:21.901Z,16.99
2019-01-19T01:16:21.887Z,16.90
2019-01-19T01:17:21.923Z,16.97
2019-01-19T01:18:21.910Z,17.01
2019-01-19T01:19:21.893Z,16.94
2019-01-19T01:20:21.931Z,16.93
2019-01-19T01:21:21.887Z,16.96
2019-01-19T01:22:21.863Z,16.91
2019-01-19T01:23:21.917Z,16.91
2019-01-19T01:24:21.830Z,17.08
2019-01-19T01:25:21.881Z,17.01
2019-01-19T01:26:21.824Z,16.99
2019-01-19T01:27:21.817Z,17.01
2019-01-19T01:28:21.824Z,16.96
2019-01-19T01:29:21.751Z,16.99
2019-01-19T01:30:21.747Z,16.96
2019-01-19T01:31:21.734Z,17.04
2019-01-19T01:32:21.718Z,17.02
2019-01-19T01:33:21.783Z,16.90
2019-01-19T01:34:21.696Z,17.04
2019-01-19T01:35:21.684Z,16.91
2019-01-19T01:36:21.667Z,17.02
2019-01-19T01:37:21.774Z,17.05
2019-01-19T01:38:21.688Z,16.94
2019-01-19T01:39:21.644Z,16.99
2019-01-19T01:40:21.620Z,16.96
2019-01-19T01:41:21.646Z,17.02
2019-01-19T01:42:21.600Z,17.05
2019-01-19T01:43:21.645Z,16.99
2019-01-19T01:44:21.645Z,16.97
2019-01-19T01:45:21.565Z,16.96
2019-01-19T01:46:21.558Z,16.89
2019-01-19T01:47:21.563Z,16.94
2019-01-19T01:48:21.569Z,16.90
2019-01-19T01:49:21.581Z,16.96
2019-01-19T01:50:21.529Z,17.06
2019-01-19T01:51:21.513Z,17.01
2019-01-19T01:52:21.494Z,16.94
2019-01-19T01:53:21.505Z,16.93
2019-01-19T01:54:21.475Z,16.96
2019-01-19T01:55:21.463Z,17.04
2019-01-19T01:56:21.445Z,16.97
2019-01-19T01:57:21.437Z,17.01
2019-01-19T01:58:21.459Z,17.05
2019-01-19T01:59:21.414Z,16.97
2019-01-19T02:00:21.412Z,17.04
2019-01-19T02:01:21.432Z,16.94
2019-01-19T02:02:21.434Z,16.93
2019-01-19T02:03:21.403Z,17.01
2019-01-19T02:04:21.364Z,17.08
2019-01-19T02:05:21.385Z,16.99
2019-01-19T02:06:21.340Z,16.96
2019-01-19T02:07:21.337Z,16.89
2019-01-19T02:08:21.348Z,16.99
2019-01-19T02:09:21.303Z,17.06
2019-01-19T02:10:21.878Z,17.06
2019-01-19T02:11:21.295Z,17.11
2019-01-19T02:12:21.270Z,17.05
2019-01-19T02:13:21.321Z,16.96
2019-01-19T02:14:21.262Z,17.08
2019-01-19T02:15:21.240Z,16.90
2019-01-19T02:16:21.231Z,16.97
2019-01-19T02:17:21.256Z,16.96
2019-01-19T02:18:21.303Z,17.05
2019-01-19T02:19:21.828Z,16.96
2019-01-19T02:20:21.213Z,17.06
2019-01-19T02:21:21.241Z,17.02
2019-01-19T02:22:21.199Z,17.05
2019-01-19T02:23:21.246Z,16.94
2019-01-19T02:24:21.173Z,16.96
2019-01-19T02:25:21.163Z,17.02
2019-01-19T02:26:21.146Z,16.93
2019-01-19T02:27:21.145Z,17.02
2019-01-19T02:28:21.120Z,17.02
2019-01-19T02:29:21.086Z,17.05
2019-01-19T02:30:21.076Z,16.87
2019-01-19T02:31:21.079Z,17.02
2019-01-19T02:32:21.066Z,16.96
2019-01-19T02:33:21.065Z,16.97
2019-01-19T02:34:21.040Z,16.96
2019-01-19T02:35:21.034Z,17.06
2019-01-19T02:36:21.012Z,17.12
2019-01-19T02:37:21.008Z,17.08
2019-01-19T02:38:20.995Z,16.93
2019-01-19T02:39:20.970Z,17.04
2019-01-19T02:40:20.963Z,17.08
2019-01-19T02:41:20.955Z,17.04
2019-01-19T02:42:20.940Z,17.09
2019-01-19T02:43:20.988Z,17.08
2019-01-19T02:44:20.933Z,17.05
2019-01-19T02:45:20.910Z,17.08
2019-01-19T02:46:20.892Z,17.09
2019-01-19T02:47:20.881Z,17.11
2019-01-19T02:48:20.871Z,17.06
2019-01-19T02:49:20.963Z,17.19
2019-01-19T02:50:20.851Z,17.15
2019-01-19T02:51:20.844Z,17.15
2019-01-19T02:52:20.840Z,17.09
2019-01-19T02:53:20.828Z,17.14
2019-01-19T02:54:20.811Z,17.11
2019-01-19T02:55:20.799Z,17.16
2019-01-19T02:56:20.792Z,17.06
2019-01-19T02:57:20.771Z,17.11
2019-01-19T02:58:20.767Z,17.06
2019-01-19T02:59:20.785Z,17.12
2019-01-19T03:00:20.754Z,17.09
2019-01-19T03:01:20.726Z,17.01
2019-01-19T03:02:20.729Z,17.01
2019-01-19T03:03:20.716Z,17.05
2019-01-19T03:04:20.720Z,16.93
2019-01-19T03:05:20.691Z,16.99
2019-01-19T03:06:20.674Z,17.05
2019-01-19T03:07:20.667Z,17.08
2019-01-19T03:08:20.649Z,17.04
2019-01-19T03:09:20.697Z,17.11
2019-01-19T03:10:20.630Z,17.01
2019-01-19T03:11:20.632Z,17.05
2019-01-19T03:12:20.653Z,17.05
2019-01-19T03:13:20.616Z,17.11
2019-01-19T03:14:20.626Z,17.09
2019-01-19T03:15:20.582Z,17.09
2019-01-19T03:16:20.584Z,17.12
2019-01-19T03:17:20.589Z,17.14
2019-01-19T03:18:20.607Z,17.08
2019-01-19T03:19:20.668Z,17.14
2019-01-19T03:20:20.550Z,17.09
2019-01-19T03:21:20.543Z,17.15
2019-01-19T03:22:20.530Z,17.08
2019-01-19T03:23:20.526Z,17.11
2019-01-19T03:24:20.592Z,17.12
2019-01-19T03:25:20.494Z,17.06
2019-01-19T03:26:20.487Z,17.04
2019-01-19T03:27:20.478Z,17.08
2019-01-19T03:28:20.432Z,17.08
2019-01-19T03:29:20.442Z,17.09
2019-01-19T03:30:20.462Z,16.99
2019-01-19T03:31:20.431Z,17.12
2019-01-19T03:32:20.463Z,17.06
2019-01-19T03:33:20.385Z,17.11
2019-01-19T03:34:20.394Z,17.08
2019-01-19T03:35:20.354Z,17.11
2019-01-19T03:36:20.345Z,17.06
2019-01-19T03:37:20.350Z,17.12
2019-01-19T03:38:20.328Z,17.05
2019-01-19T03:39:20.339Z,17.11
2019-01-19T03:40:20.321Z,17.11
2019-01-19T03:41:20.291Z,17.09
2019-01-19T03:42:20.276Z,17.09
2019-01-19T03:43:20.263Z,17.14
2019-01-19T03:44:20.336Z,17.11
2019-01-19T03:45:20.273Z,17.08
2019-01-19T03:46:20.241Z,17.06
2019-01-19T03:47:20.232Z,17.08
2019-01-19T03:48:20.212Z,17.02
2019-01-19T03:49:20.241Z,17.12
2019-01-19T03:50:20.275Z,17.08
2019-01-19T03:51:20.174Z,17.02
2019-01-19T03:52:20.166Z,17.09
2019-01-19T03:53:20.160Z,17.06
2019-01-19T03:54:20.180Z,17.02
2019-01-19T03:55:20.196Z,17.06
2019-01-19T03:56:20.116Z,16.94
2019-01-19T03:57:20.111Z,17.05
2019-01-19T03:58:20.106Z,17.06
2019-01-19T03:59:20.110Z,16.97
2019-01-19T04:00:20.107Z,16.93
2019-01-19T04:01:20.074Z,17.01
2019-01-19T04:02:20.054Z,16.93
2019-01-19T04:03:20.047Z,16.94
2019-01-19T04:04:20.104Z,17.01
2019-01-19T04:05:20.028Z,16.94
2019-01-19T04:06:20.015Z,16.89
2019-01-19T04:07:20.007Z,17.02
2019-01-19T04:08:19.991Z,16.96
2019-01-19T04:09:20.084Z,16.93
2019-01-19T04:10:19.970Z,16.94
2019-01-19T04:11:19.969Z,16.97
2019-01-19T04:12:19.974Z,17.01
2019-01-19T04:13:19.946Z,16.94
2019-01-19T04:14:19.955Z,17.02
2019-01-19T04:15:19.948Z,16.81
2019-01-19T04:16:19.896Z,16.87
2019-01-19T04:17:19.972Z,16.96
2019-01-19T04:18:19.926Z,16.93
2019-01-19T04:19:19.956Z,16.93
2019-01-19T04:20:20.065Z,16.94
2019-01-19T04:21:19.873Z,16.86
2019-01-19T04:22:19.917Z,16.89
2019-01-19T04:23:19.862Z,16.91
2019-01-19T04:24:19.877Z,16.81
2019-01-19T04:25:19.830Z,16.76
2019-01-19T04:26:19.819Z,16.83
2019-01-19T04:27:19.815Z,16.79
2019-01-19T04:28:19.778Z,16.78
2019-01-19T04:29:19.964Z,16.76
2019-01-19T04:30:19.751Z,16.81
2019-01-19T04:31:19.741Z,16.76
2019-01-19T04:32:24.797Z,16.81
2019-01-19T04:33:19.709Z,16.78
2019-01-19T04:34:19.698Z,16.84
2019-01-19T04:35:19.787Z,16.78
2019-01-19T04:36:21.744Z,16.89
2019-01-19T04:37:20.088Z,16.90
2019-01-19T04:38:19.653Z,16.81
2019-01-19T04:39:19.641Z,16.76
2019-01-19T04:40:21.109Z,16.87
2019-01-19T04:41:19.623Z,16.78
2019-01-19T04:42:19.617Z,16.71
2019-01-19T04:43:19.599Z,16.75
2019-01-19T04:44:19.586Z,16.68
2019-01-19T04:45:19.609Z,16.68
2019-01-19T04:46:19.581Z,16.68
2019-01-19T04:47:19.565Z,16.68
2019-01-19T04:48:19.547Z,16.58
2019-01-19T04:49:20.125Z,16.53
2019-01-19T04:50:19.547Z,16.54
2019-01-19T04:51:19.530Z,16.51
2019-01-19T04:52:19.500Z,16.54
2019-01-19T04:53:19.491Z,16.56
2019-01-19T04:54:19.512Z,16.54
2019-01-19T04:55:19.529Z,16.56
2019-01-19T04:56:19.461Z,16.51
2019-01-19T04:57:19.504Z,16.57
2019-01-19T04:58:19.441Z,16.58
2019-01-19T04:59:19.423Z,16.53
2019-01-19T05:00:19.441Z,16.61
2019-01-19T05:01:19.416Z,16.60
2019-01-19T05:02:19.384Z,16.56
2019-01-19T05:03:19.373Z,16.68
2019-01-19T05:04:19.376Z,16.58
2019-01-19T05:05:19.421Z,16.56
2019-01-19T05:06:20.429Z,16.66
2019-01-19T05:07:19.334Z,16.56
2019-01-19T05:08:19.325Z,16.56
2019-01-19T05:09:19.315Z,16.65
2019-01-19T05:10:19.359Z,16.66
2019-01-19T05:11:19.288Z,16.60
2019-01-19T05:12:19.277Z,16.60
2019-01-19T05:13:19.272Z,16.61
2019-01-19T05:14:19.283Z,16.71
2019-01-19T05:15:19.273Z,16.66
2019-01-19T05:16:19.236Z,16.64
2019-01-19T05:17:19.358Z,16.68
2019-01-19T05:18:19.297Z,16.72
2019-01-19T05:19:19.243Z,16.74
2019-01-19T05:20:19.325Z,16.68
2019-01-19T05:21:19.252Z,16.64
2019-01-19T05:22:19.229Z,16.64
2019-01-19T05:23:19.203Z,16.72
2019-01-19T05:24:19.191Z,16.71
2019-01-19T05:25:19.246Z,16.72
2019-01-19T05:26:19.162Z,16.61
2019-01-19T05:27:19.146Z,16.66
2019-01-19T05:28:19.109Z,16.64
2019-01-19T05:29:19.089Z,16.61
2019-01-19T05:30:19.430Z,16.65
2019-01-19T05:31:19.105Z,16.64
2019-01-19T05:32:19.072Z,16.64
2019-01-19T05:33:19.047Z,16.66
2019-01-19T05:34:19.037Z,16.65
2019-01-19T05:35:19.056Z,16.65
2019-01-19T05:36:19.021Z,16.56
2019-01-19T05:37:19.003Z,16.61
2019-01-19T05:38:19.010Z,16.61
2019-01-19T05:39:18.986Z,16.57
2019-01-19T05:40:19.038Z,16.61
2019-01-19T05:41:18.964Z,16.61
2019-01-19T05:42:18.962Z,16.51
2019-01-19T05:43:18.959Z,16.56
2019-01-19T05:44:18.932Z,16.53
2019-01-19T05:45:18.946Z,16.51
2019-01-19T05:46:21.488Z,16.57
2019-01-19T05:47:18.893Z,16.56
2019-01-19T05:48:18.890Z,16.58
2019-01-19T05:49:18.867Z,16.65
2019-01-19T05:50:18.862Z,16.60
2019-01-19T05:51:18.882Z,16.65
2019-01-19T05:52:18.841Z,16.60
2019-01-19T05:53:18.835Z,16.69
2019-01-19T05:54:18.809Z,16.64
2019-01-19T05:55:18.806Z,16.61
2019-01-19T05:56:18.820Z,16.68
2019-01-19T05:57:18.827Z,16.54
2019-01-19T05:58:18.784Z,16.61
2019-01-19T05:59:18.809Z,16.57
2019-01-19T06:00:18.756Z,16.53
2019-01-19T06:01:18.777Z,16.49
2019-01-19T06:02:18.769Z,16.54
2019-01-19T06:03:18.716Z,16.53
2019-01-19T06:04:18.749Z,16.54
2019-01-19T06:05:18.692Z,16.53
2019-01-19T06:06:18.709Z,16.49
2019-01-19T06:07:18.670Z,16.50
2019-01-19T06:08:18.662Z,16.47
2019-01-19T06:09:18.666Z,16.50
2019-01-19T06:10:18.693Z,16.50
2019-01-19T06:11:18.667Z,16.53
2019-01-19T06:12:18.611Z,16.46
2019-01-19T06:13:18.599Z,16.49
2019-01-19T06:14:18.590Z,16.50
2019-01-19T06:15:18.622Z,16.47
2019-01-19T06:16:18.594Z,16.50
2019-01-19T06:17:18.640Z,16.49
2019-01-19T06:18:18.617Z,16.53
2019-01-19T06:19:18.570Z,16.46
2019-01-19T06:20:18.602Z,16.50
2019-01-19T06:21:18.601Z,16.51
2019-01-19T06:22:18.546Z,16.50
2019-01-19T06:23:18.526Z,16.56
2019-01-19T06:24:18.515Z,16.54
2019-01-19T06:25:18.510Z,16.50
2019-01-19T06:26:18.563Z,16.47
2019-01-19T06:27:18.484Z,16.58
2019-01-19T06:28:18.445Z,16.66
2019-01-19T06:29:18.433Z,16.65
2019-01-19T06:30:18.415Z,16.66
2019-01-19T06:31:18.430Z,16.64
2019-01-19T06:32:18.405Z,16.51
2019-01-19T06:33:18.395Z,16.69
2019-01-19T06:34:18.377Z,16.56
2019-01-19T06:35:18.359Z,16.65
2019-01-19T06:36:18.385Z,16.64
2019-01-19T06:37:18.338Z,16.64
2019-01-19T06:38:18.332Z,16.61
2019-01-19T06:39:18.325Z,16.64
2019-01-19T06:40:18.321Z,16.65
2019-01-19T06:41:18.319Z,16.64
2019-01-19T06:42:18.281Z,16.66
2019-01-19T06:43:18.270Z,16.72
2019-01-19T06:44:18.278Z,16.65
2019-01-19T06:45:18.260Z,16.57
2019-01-19T06:46:18.265Z,16.61
2019-01-19T06:47:18.241Z,16.54
2019-01-19T06:48:18.221Z,16.58
2019-01-19T06:49:18.219Z,16.56
2019-01-19T06:50:18.198Z,16.57
2019-01-19T06:51:19.624Z,16.51
2019-01-19T06:52:18.175Z,16.49
2019-01-19T06:53:18.164Z,16.51
2019-01-19T06:54:18.170Z,16.56
2019-01-19T06:55:18.149Z,16.49
2019-01-19T06:56:18.219Z,16.53
2019-01-19T06:57:18.118Z,16.46
2019-01-19T06:58:18.179Z,16.50
2019-01-19T06:59:18.136Z,16.51
2019-01-19T07:00:18.085Z,16.46
2019-01-19T07:01:18.131Z,16.50
2019-01-19T07:02:18.063Z,16.46
2019-01-19T07:03:18.052Z,16.43
2019-01-19T07:04:18.040Z,16.43
2019-01-19T07:05:18.034Z,16.46
2019-01-19T07:06:18.025Z,16.47
2019-01-19T07:07:18.018Z,16.43
2019-01-19T07:08:17.998Z,16.47
2019-01-19T07:09:17.989Z,16.47
2019-01-19T07:10:17.971Z,16.43
2019-01-19T07:11:18.009Z,16.43
2019-01-19T07:12:17.955Z,16.36
2019-01-19T07:13:17.943Z,16.47
2019-01-19T07:14:18.039Z,16.47
2019-01-19T07:15:17.920Z,16.39
2019-01-19T07:16:17.904Z,16.43
2019-01-19T07:17:18.003Z,16.39
2019-01-19T07:18:17.913Z,16.36
2019-01-19T07:19:17.911Z,16.36
2019-01-19T07:20:17.894Z,16.42
2019-01-19T07:21:17.880Z,16.43
2019-01-19T07:22:17.943Z,16.41
2019-01-19T07:23:17.870Z,16.42
2019-01-19T07:24:17.853Z,16.46
2019-01-19T07:25:17.837Z,16.47
2019-01-19T07:26:17.830Z,16.33
2019-01-19T07:27:17.878Z,16.39
2019-01-19T07:28:17.774Z,16.41
2019-01-19T07:29:17.760Z,16.38
2019-01-19T07:30:17.754Z,16.42
2019-01-19T07:31:17.747Z,16.42
2019-01-19T07:32:17.768Z,16.49
2019-01-19T07:33:17.717Z,16.47
2019-01-19T07:34:17.738Z,16.47
2019-01-19T07:35:17.696Z,16.36
2019-01-19T07:36:17.687Z,16.54
2019-01-19T07:37:19.693Z,16.47
2019-01-19T07:38:17.673Z,16.43
2019-01-19T07:39:17.659Z,16.47
2019-01-19T07:40:17.650Z,16.46
2019-01-19T07:41:17.630Z,16.54
2019-01-19T07:42:17.642Z,16.64
2019-01-19T07:43:17.612Z,16.66
2019-01-19T07:44:17.596Z,16.69
2019-01-19T07:45:17.589Z,16.72
2019-01-19T07:46:19.141Z,16.75
2019-01-19T07:47:17.603Z,16.87
2019-01-19T07:48:17.552Z,16.83
2019-01-19T07:49:17.549Z,16.94
2019-01-19T07:50:17.535Z,17.05
2019-01-19T07:51:17.523Z,17.01
2019-01-19T07:52:17.557Z,17.09
2019-01-19T07:53:17.514Z,17.09
2019-01-19T07:54:17.484Z,17.12
2019-01-19T07:55:17.540Z,17.12
2019-01-19T07:56:17.473Z,17.23
2019-01-19T07:57:17.535Z,17.26
2019-01-19T07:58:27.444Z,17.23
2019-01-19T07:59:17.432Z,17.34
2019-01-19T08:00:17.421Z,17.36
2019-01-19T08:01:17.405Z,17.34
2019-01-19T08:02:17.444Z,17.48
2019-01-19T08:03:17.384Z,17.45
2019-01-19T08:04:18.588Z,17.45
2019-01-19T08:05:17.373Z,17.49
2019-01-19T08:06:17.348Z,17.49
2019-01-19T08:07:17.607Z,17.54
2019-01-19T08:08:17.329Z,17.56
2019-01-19T08:09:17.645Z,17.59
2019-01-19T08:10:17.536Z,17.64
2019-01-19T08:11:17.298Z,17.59
2019-01-19T08:12:17.316Z,17.60
2019-01-19T08:13:17.291Z,17.79
2019-01-19T08:14:17.267Z,17.78
2019-01-19T08:15:17.302Z,17.86
2019-01-19T08:16:17.250Z,17.92
2019-01-19T08:17:17.370Z,17.97
2019-01-19T08:18:18.852Z,17.95
2019-01-19T08:19:17.238Z,17.98
2019-01-19T08:20:17.292Z,18.04
2019-01-19T08:21:17.216Z,18.10
2019-01-19T08:22:17.283Z,18.07
2019-01-19T08:23:17.196Z,18.11
2019-01-19T08:24:17.192Z,18.16
2019-01-19T08:25:17.184Z,18.20
2019-01-19T08:26:17.170Z,18.22
2019-01-19T08:27:17.250Z,18.37
2019-01-19T08:28:17.298Z,18.41
2019-01-19T08:29:18.389Z,18.40
2019-01-19T08:30:17.088Z,18.50
2019-01-19T08:31:17.082Z,18.50
2019-01-19T08:32:17.119Z,18.58
2019-01-19T08:33:17.086Z,18.52
2019-01-19T08:34:17.052Z,18.60
2019-01-19T08:35:17.031Z,18.66
2019-01-19T08:36:17.020Z,18.62
2019-01-19T08:37:24.219Z,18.75
2019-01-19T08:38:17.000Z,18.83
2019-01-19T08:39:16.985Z,18.92
2019-01-19T08:40:16.993Z,18.98
2019-01-19T08:41:16.972Z,19.02
2019-01-19T08:42:16.971Z,19.26
2019-01-19T08:43:16.977Z,19.21
2019-01-19T08:44:16.937Z,19.29
2019-01-19T08:45:16.922Z,19.44
2019-01-19T08:46:16.911Z,19.52
2019-01-19T08:47:16.946Z,19.49
2019-01-19T08:48:16.941Z,19.56
2019-01-19T08:49:16.890Z,19.64
2019-01-19T08:50:16.859Z,19.74
2019-01-19T08:51:16.872Z,19.79
2019-01-19T08:52:16.850Z,19.84
2019-01-19T08:53:17.123Z,19.92
2019-01-19T08:54:16.827Z,19.96
2019-01-19T08:55:16.819Z,20.00
2019-01-19T08:56:16.797Z,20.04
2019-01-19T08:57:16.784Z,20.18
2019-01-19T08:58:16.819Z,20.28
2019-01-19T08:59:16.778Z,20.24
2019-01-19T09:00:16.762Z,20.36
2019-01-19T09:01:16.743Z,20.43
2019-01-19T09:02:16.767Z,20.52
2019-01-19T09:03:16.751Z,20.65
2019-01-19T09:04:16.727Z,20.65
2019-01-19T09:05:16.699Z,20.80
2019-01-19T09:06:16.738Z,20.80
2019-01-19T09:07:16.678Z,20.96
2019-01-19T09:08:16.705Z,20.96
2019-01-19T09:09:16.724Z,21.00
2019-01-19T09:10:16.651Z,21.14
2019-01-19T09:11:16.637Z,21.25
2019-01-19T09:12:16.662Z,21.17
2019-01-19T09:13:16.650Z,21.17
2019-01-19T09:14:16.617Z,21.24
2019-01-19T09:15:16.596Z,21.29
2019-01-19T09:16:16.610Z,21.36
2019-01-19T09:17:16.776Z,21.43
2019-01-19T09:18:18.042Z,21.40
2019-01-19T09:19:16.597Z,21.48
2019-01-19T09:20:16.559Z,21.58
2019-01-19T09:21:16.564Z,21.58
2019-01-19T09:22:16.553Z,21.57
2019-01-19T09:23:16.808Z,21.64
2019-01-19T09:24:16.577Z,21.72
2019-01-19T09:25:16.512Z,21.66
2019-01-19T09:26:16.501Z,21.76
2019-01-19T09:27:16.493Z,21.79
2019-01-19T09:28:16.480Z,21.79
2019-01-19T09:29:16.444Z,21.89
2019-01-19T09:30:16.433Z,21.88
2019-01-19T09:31:16.416Z,21.89
2019-01-19T09:32:16.422Z,21.91
2019-01-19T09:33:16.475Z,21.99
2019-01-19T09:34:16.452Z,22.02
2019-01-19T09:35:16.420Z,21.99
2019-01-19T09:36:16.358Z,21.98
2019-01-19T09:37:16.350Z,22.00
2019-01-19T09:38:16.404Z,22.10
2019-01-19T09:39:16.334Z,22.15
2019-01-19T09:40:16.325Z,22.13
2019-01-19T09:41:16.311Z,22.14
2019-01-19T09:42:16.298Z,22.13
2019-01-19T09:43:16.320Z,22.20
2019-01-19T09:44:16.299Z,22.14
2019-01-19T09:45:16.265Z,22.28
2019-01-19T09:46:16.253Z,22.28
2019-01-19T09:47:17.639Z,22.23
2019-01-19T09:48:16.329Z,22.28
2019-01-19T09:49:16.222Z,22.29
2019-01-19T09:50:16.285Z,22.32
2019-01-19T09:51:16.197Z,22.33
2019-01-19T09:52:21.151Z,22.35
2019-01-19T09:53:16.202Z,22.45
2019-01-19T09:54:16.166Z,22.44
2019-01-19T09:55:16.149Z,22.45
2019-01-19T09:56:16.147Z,22.44
2019-01-19T09:57:16.137Z,22.43
2019-01-19T09:58:16.148Z,22.47
2019-01-19T09:59:16.155Z,22.41
2019-01-19T10:00:16.096Z,22.63
2019-01-19T10:01:16.083Z,22.60
2019-01-19T10:02:16.072Z,22.54
2019-01-19T10:03:16.089Z,22.62
2019-01-19T10:04:16.062Z,22.69
2019-01-19T10:05:16.107Z,22.63
2019-01-19T10:06:16.045Z,22.69
2019-01-19T10:07:16.033Z,22.72
2019-01-19T10:08:16.219Z,22.76
2019-01-19T10:09:16.028Z,22.83
2019-01-19T10:10:15.998Z,22.81
2019-01-19T10:11:15.991Z,22.83
2019-01-19T10:12:15.973Z,22.91
2019-01-19T10:13:17.213Z,22.94
2019-01-19T10:14:15.961Z,22.99
2019-01-19T10:15:15.938Z,23.03
2019-01-19T10:16:15.942Z,23.09
2019-01-19T10:17:15.955Z,23.05
2019-01-19T10:18:15.947Z,23.06
2019-01-19T10:19:15.977Z,23.15
2019-01-19T10:20:15.922Z,23.15
2019-01-19T10:21:15.910Z,23.23
2019-01-19T10:22:15.902Z,23.23
2019-01-19T10:23:15.885Z,23.27
2019-01-19T10:24:15.876Z,23.32
2019-01-19T10:25:15.864Z,23.46
2019-01-19T10:26:15.859Z,23.36
2019-01-19T10:27:15.857Z,23.39
2019-01-19T10:28:15.804Z,23.55
2019-01-19T10:29:15.791Z,23.50
2019-01-19T10:30:15.780Z,23.51
2019-01-19T10:31:15.768Z,23.54
2019-01-19T10:32:15.751Z,23.62
2019-01-19T10:33:15.803Z,23.63
2019-01-19T10:34:15.833Z,23.83
2019-01-19T10:35:15.713Z,23.74
2019-01-19T10:36:15.757Z,23.78
2019-01-19T10:37:15.693Z,23.92
2019-01-19T10:38:15.739Z,23.92
2019-01-19T10:39:15.698Z,23.84
2019-01-19T10:40:16.255Z,23.92
2019-01-19T10:41:15.650Z,23.95
2019-01-19T10:42:15.649Z,24.03
2019-01-19T10:43:15.632Z,24.06
2019-01-19T10:44:15.668Z,24.14
2019-01-19T10:45:15.613Z,24.17
2019-01-19T10:46:15.597Z,24.23
2019-01-19T10:47:15.604Z,24.28
2019-01-19T10:48:15.568Z,24.30
2019-01-19T10:49:15.598Z,24.40
2019-01-19T10:50:15.591Z,24.33
2019-01-19T10:51:15.547Z,24.38
2019-01-19T10:52:15.528Z,24.43
2019-01-19T10:53:15.520Z,24.47
2019-01-19T10:54:15.554Z,24.39
2019-01-19T10:55:15.505Z,24.48
2019-01-19T10:56:15.485Z,24.40
2019-01-19T10:57:15.477Z,24.53
2019-01-19T10:58:15.464Z,24.50
2019-01-19T10:59:15.539Z,24.57
2019-01-19T11:00:15.455Z,24.60
2019-01-19T11:01:15.434Z,24.61
2019-01-19T11:02:15.433Z,24.57
2019-01-19T11:03:15.411Z,24.60
2019-01-19T11:04:15.442Z,24.68
2019-01-19T11:05:15.514Z,24.69
2019-01-19T11:06:15.378Z,24.78
2019-01-19T11:07:15.480Z,24.68
2019-01-19T11:08:15.355Z,24.73
2019-01-19T11:09:15.510Z,24.80
2019-01-19T11:10:15.454Z,24.76
2019-01-19T11:11:15.368Z,24.85
2019-01-19T11:12:15.317Z,24.78
2019-01-19T11:13:15.343Z,24.88
2019-01-19T11:14:15.330Z,24.85
2019-01-19T11:15:15.282Z,24.81
2019-01-19T11:16:15.364Z,24.88
2019-01-19T11:17:15.306Z,24.85
2019-01-19T11:18:15.289Z,24.81
2019-01-19T11:19:15.337Z,24.85
2019-01-19T11:20:15.261Z,24.91
2019-01-19T11:21:15.248Z,24.85
2019-01-19T11:22:15.248Z,24.85
2019-01-19T11:23:15.228Z,24.85
2019-01-19T11:24:15.282Z,24.89
2019-01-19T11:25:15.203Z,24.89
2019-01-19T11:26:15.359Z,24.95
2019-01-19T11:27:15.184Z,24.95
2019-01-19T11:28:15.151Z,24.86
2019-01-19T11:29:15.156Z,24.91
2019-01-19T11:30:15.120Z,24.99
2019-01-19T11:31:15.105Z,24.92
2019-01-19T11:32:15.129Z,24.93
2019-01-19T11:33:15.116Z,24.93
2019-01-19T11:34:15.107Z,24.89
2019-01-19T11:35:15.069Z,24.93
2019-01-19T11:36:15.268Z,24.92
2019-01-19T11:37:15.043Z,24.92
2019-01-19T11:38:20.054Z,24.95
2019-01-19T11:39:15.145Z,25.07
2019-01-19T11:40:15.012Z,24.93
2019-01-19T11:41:15.003Z,24.92
2019-01-19T11:42:14.999Z,24.92
2019-01-19T11:43:14.997Z,25.04
2019-01-19T11:44:14.992Z,25.01
2019-01-19T11:45:14.974Z,24.96
2019-01-19T11:46:14.948Z,25.06
2019-01-19T11:47:14.937Z,24.98
2019-01-19T11:48:14.923Z,24.93
2019-01-19T11:49:14.939Z,24.96
2019-01-19T11:50:14.953Z,24.99
2019-01-19T11:51:14.906Z,25.03
2019-01-19T11:52:14.890Z,25.03
2019-01-19T11:53:14.870Z,24.96
2019-01-19T11:54:14.912Z,24.92
2019-01-19T11:55:14.855Z,24.98
2019-01-19T11:56:14.840Z,24.92
2019-01-19T11:57:14.840Z,24.95
2019-01-19T11:58:14.813Z,24.92
2019-01-19T11:59:14.878Z,24.96
2019-01-19T12:00:14.817Z,24.91
2019-01-19T12:01:14.779Z,24.96
2019-01-19T12:02:14.766Z,24.93
2019-01-19T12:03:14.774Z,24.99
2019-01-19T12:04:14.776Z,24.89
2019-01-19T12:05:14.740Z,24.98
2019-01-19T12:06:14.735Z,24.96
2019-01-19T12:07:14.712Z,24.96
2019-01-19T12:08:19.388Z,24.96
2019-01-19T12:09:14.690Z,24.93
2019-01-19T12:10:14.712Z,24.95
2019-01-19T12:11:14.753Z,24.95
2019-01-19T12:12:14.670Z,24.93
2019-01-19T12:13:14.670Z,24.95
2019-01-19T12:14:14.639Z,24.93
2019-01-19T12:15:14.653Z,24.96
2019-01-19T12:16:14.620Z,24.99
2019-01-19T12:17:14.643Z,24.98
2019-01-19T12:18:14.633Z,24.93
2019-01-19T12:19:14.666Z,24.92
2019-01-19T12:20:14.667Z,24.92
2019-01-19T12:21:14.618Z,24.92
2019-01-19T12:22:14.584Z,24.95
2019-01-19T12:23:14.610Z,24.91
2019-01-19T12:24:14.559Z,24.91
2019-01-19T12:25:14.606Z,24.91
2019-01-19T12:26:14.534Z,24.89
2019-01-19T12:27:14.547Z,24.89
2019-01-19T12:28:14.484Z,24.88
2019-01-19T12:29:14.475Z,24.84
2019-01-19T12:30:14.499Z,24.80
2019-01-19T12:31:14.461Z,24.76
2019-01-19T12:32:14.443Z,24.77
2019-01-19T12:33:14.431Z,24.74
2019-01-19T12:34:14.442Z,24.68
2019-01-19T12:35:14.488Z,24.76
2019-01-19T12:36:14.436Z,24.70
2019-01-19T12:37:14.392Z,24.58
2019-01-19T12:38:14.392Z,24.65
2019-01-19T12:39:14.376Z,24.55
2019-01-19T12:40:15.827Z,24.63
2019-01-19T12:41:14.363Z,24.61
2019-01-19T12:42:14.330Z,24.50
2019-01-19T12:43:14.323Z,24.55
2019-01-19T12:44:14.308Z,24.48
2019-01-19T12:45:14.332Z,24.50
2019-01-19T12:46:14.302Z,24.36
2019-01-19T12:47:14.401Z,24.35
2019-01-19T12:48:14.270Z,24.38
2019-01-19T12:49:14.772Z,24.35
2019-01-19T12:50:14.277Z,24.33
2019-01-19T12:51:14.496Z,24.23
2019-01-19T12:52:14.276Z,24.18